Station History

Weather Underground - logo

Station Historical Data
Daily Summary for January 25, 2018 Units:  English    Metric   Both
« Previous Day
Next Day »
Daily Weekly Monthly Yearly Custom
  High: Low: Average:
Temperature: TemperatureF °F 37.6 °F 48.6 °F
Dew Point: DewpointF °F 34.9 °F 41.7 °F
Humidity: Humidity % 47 % 78 %
Wind Speed: WindSpeedMPH mph 0.0 mph 1.4 mph
Wind Gust: WindSpeedGustMPH mph - -
Wind:- - WSW
Pressure: PressureIn in 30.02 in -
Precipitation: 0.24 in    
Historical Graphs
 
 
Tabular Data for January 25, 2018
Time Temperature Dew Point Pressure Wind Wind Speed Wind Gust Humidity Rainfall Rate (Hourly)
TemperatureF °F DewpointF °F PressureIn in Calm     Humidity % HourlyPrecipIn in
00:02 51.2 °F 45.6 °F 30.04 in NW 4.6 mph 4.6 mph 81 % 0.00 in
00:07 51.4 °F 45.4 °F 30.04 in NW 4.6 mph 4.6 mph 80 % 0.00 in
00:12 51.4 °F 45.4 °F 30.04 in NW 3.5 mph 3.5 mph 80 % 0.00 in
00:17 51.4 °F 45.4 °F 30.04 in NW 3.5 mph 3.5 mph 80 % 0.00 in
00:22 51.6 °F 45.3 °F 30.04 in NW 4.6 mph 4.6 mph 79 % 0.00 in
00:27 51.9 °F 45.3 °F 30.04 in NW 3.5 mph 3.5 mph 78 % 0.00 in
00:32 51.9 °F 45.3 °F 30.04 in NW 1.2 mph 1.2 mph 78 % 0.00 in
00:37 51.8 °F 45.2 °F 30.04 in WNW 1.2 mph   78 % 0.00 in
00:42 51.7 °F 45.1 °F 30.03 in NNW 1.2 mph   78 % 0.00 in
00:47 51.5 °F 45.2 °F 30.04 in Calm     79 % 0.00 in
00:52 51.2 °F 44.9 °F 30.04 in Calm     79 % 0.00 in
00:57 50.9 °F 44.9 °F 30.04 in Calm     80 % 0.00 in
01:02 50.7 °F 44.8 °F 30.03 in Calm     80 % 0.00 in
01:07 50.4 °F 44.8 °F 30.03 in Calm     81 % 0.00 in
01:12 50.1 °F 44.5 °F 30.03 in Calm     81 % 0.00 in
01:17 49.8 °F 44.5 °F 30.03 in Calm     82 % 0.00 in
01:22 49.6 °F 44.6 °F 30.03 in Calm     83 % 0.00 in
01:28 49.3 °F 44.4 °F 30.03 in Calm     83 % 0.00 in
01:33 49.1 °F 44.5 °F 30.03 in Calm     84 % 0.00 in
01:38 49.0 °F 44.7 °F 30.02 in Calm     85 % 0.00 in
01:43 48.9 °F 44.6 °F 30.02 in Calm     85 % 0.00 in
01:48 48.7 °F 44.4 °F 30.02 in Calm     85 % 0.00 in
01:53 48.4 °F 44.4 °F 30.02 in Calm     86 % 0.00 in
01:58 48.2 °F 44.2 °F 30.02 in Calm     86 % 0.00 in
02:03 47.9 °F 44.2 °F 30.02 in Calm     87 % 0.00 in
02:08 47.9 °F 44.5 °F 30.02 in Calm     88 % 0.00 in
02:13 47.9 °F 44.5 °F 30.03 in Calm     88 % 0.00 in
02:18 47.9 °F 44.5 °F 30.03 in Calm     88 % 0.00 in
02:23 47.9 °F 44.5 °F 30.03 in Calm     88 % 0.00 in
02:28 47.9 °F 44.5 °F 30.03 in WNW 1.2 mph 1.2 mph 88 % 0.00 in
02:33 47.9 °F 44.8 °F 30.03 in NNW 1.2 mph   89 % 0.00 in
02:38 47.8 °F 44.7 °F 30.03 in SSE 1.0 mph 1.0 mph 89 % 0.00 in
02:43 47.7 °F 44.6 °F 30.04 in SSE 1.0 mph 1.0 mph 89 % 0.00 in
02:48 47.6 °F 44.5 °F 30.04 in ESE 1.2 mph   89 % 0.00 in
02:53 47.5 °F 44.4 °F 30.04 in ESE 1.2 mph 1.2 mph 89 % 0.00 in
02:58 47.4 °F 44.3 °F 30.03 in East 2.0 mph 2.0 mph 89 % 0.00 in
03:04 47.3 °F 44.2 °F 30.04 in East 1.0 mph   89 % 0.00 in
03:09 47.3 °F 44.2 °F 30.04 in Calm     89 % 0.00 in
03:14 47.2 °F 44.4 °F 30.03 in East 1.2 mph 1.2 mph 90 % 0.00 in
03:19 47.2 °F 44.4 °F 30.04 in Calm     90 % 0.00 in
03:24 47.1 °F 44.3 °F 30.03 in East 1.2 mph 1.2 mph 90 % 0.00 in
03:29 47.1 °F 44.3 °F 30.03 in East 1.2 mph   90 % 0.00 in
03:34 47.0 °F 44.2 °F 30.04 in East 2.3 mph 2.3 mph 90 % 0.00 in
03:39 46.8 °F 44.0 °F 30.03 in Calm     90 % 0.00 in
03:44 46.7 °F 43.9 °F 30.03 in Calm     90 % 0.00 in
03:49 46.6 °F 43.8 °F 30.04 in East 1.2 mph 1.2 mph 90 % 0.00 in
03:54 46.5 °F 43.7 °F 30.05 in Calm     90 % 0.00 in
03:59 46.4 °F 43.9 °F 30.05 in Calm     91 % 0.00 in
04:04 46.4 °F 43.9 °F 30.05 in Calm     91 % 0.00 in
04:09 46.4 °F 43.9 °F 30.05 in Calm     91 % 0.00 in
04:14 46.3 °F 43.8 °F 30.04 in East 1.2 mph   91 % 0.00 in
04:19 46.2 °F 44.0 °F 30.04 in Calm     92 % 0.00 in
04:24 46.2 °F 44.0 °F 30.05 in East 1.2 mph   92 % 0.00 in
04:29 46.1 °F 43.9 °F 30.05 in Calm     92 % 0.00 in
04:34 46.0 °F 43.8 °F 30.05 in East 1.2 mph 1.2 mph 92 % 0.00 in
04:39 46.0 °F 43.8 °F 30.05 in East 1.2 mph 1.2 mph 92 % 0.00 in
04:44 46.0 °F 43.8 °F 30.05 in East 2.3 mph 2.3 mph 92 % 0.00 in
04:49 46.0 °F 43.8 °F 30.05 in East 1.2 mph 1.2 mph 92 % 0.00 in
04:54 45.9 °F 44.0 °F 30.05 in East 1.2 mph 1.2 mph 93 % 0.00 in
04:59 45.9 °F 44.0 °F 30.06 in East 3.0 mph 3.0 mph 93 % 0.00 in
05:04 45.9 °F 44.0 °F 30.06 in East 1.2 mph 1.2 mph 93 % 0.00 in
05:09 45.8 °F 43.9 °F 30.06 in Calm     93 % 0.00 in
05:14 45.7 °F 43.8 °F 30.06 in East 1.2 mph 1.2 mph 93 % 0.00 in
05:20 45.8 °F 43.9 °F 30.06 in Calm     93 % 0.00 in
05:25 45.9 °F 44.0 °F 30.06 in Calm     93 % 0.00 in
05:30 45.9 °F 44.0 °F 30.07 in East 1.2 mph 1.2 mph 93 % 0.01 in
05:35 46.1 °F 44.5 °F 30.07 in Calm     94 % 0.01 in
05:40 46.1 °F 44.5 °F 30.07 in Calm     94 % 0.01 in
05:45 46.1 °F 44.5 °F 30.07 in East 1.2 mph 1.2 mph 94 % 0.02 in
05:50 46.1 °F 44.5 °F 30.08 in East 2.3 mph 2.3 mph 94 % 0.02 in
05:55 46.1 °F 44.5 °F 30.08 in Calm     94 % 0.03 in
06:00 46.1 °F 44.5 °F 30.08 in Calm     94 % 0.03 in
06:05 46.2 °F 44.6 °F 30.09 in Calm     94 % 0.04 in
06:10 46.3 °F 44.7 °F 30.09 in Calm     94 % 0.06 in
06:15 46.3 °F 44.7 °F 30.09 in Calm     94 % 0.07 in
06:20 46.3 °F 44.7 °F 30.09 in Calm     94 % 0.08 in
06:25 46.4 °F 44.8 °F 30.09 in Calm     94 % 0.09 in
06:30 46.4 °F 45.0 °F 30.09 in East 1.2 mph   95 % 0.09 in
06:35 46.5 °F 45.1 °F 30.09 in Calm   0.1 mph 95 % 0.10 in
06:40 46.5 °F 45.1 °F 30.10 in Calm     95 % 0.10 in
06:45 46.6 °F 45.2 °F 30.10 in Calm     95 % 0.10 in
06:50 46.6 °F 45.2 °F 30.10 in Calm     95 % 0.10 in
06:55 46.7 °F 45.3 °F 30.10 in Calm     95 % 0.10 in
07:00 46.7 °F 45.3 °F 30.10 in Calm     95 % 0.10 in
07:05 46.9 °F 45.5 °F 30.10 in NW 2.3 mph 2.3 mph 95 % 0.11 in
07:10 47.2 °F 45.8 °F 30.10 in NNW 1.2 mph 1.2 mph 95 % 0.10 in
07:15 47.4 °F 46.0 °F 30.10 in Calm     95 % 0.09 in
07:20 47.5 °F 46.1 °F 30.10 in NW 2.0 mph 2.0 mph 95 % 0.09 in
07:25 47.5 °F 46.1 °F 30.10 in WNW 5.8 mph 5.8 mph 95 % 0.08 in
07:30 47.5 °F 45.9 °F 30.10 in NW 3.5 mph 3.5 mph 94 % 0.07 in
07:36 47.5 °F 45.9 °F 30.10 in NW 3.5 mph 3.5 mph 94 % 0.06 in
07:41 47.5 °F 45.9 °F 30.11 in NW 2.3 mph 2.3 mph 94 % 0.06 in
07:46 47.5 °F 45.9 °F 30.11 in NW 1.2 mph 1.2 mph 94 % 0.05 in
07:51 47.5 °F 45.9 °F 30.11 in WNW 2.3 mph 2.3 mph 94 % 0.05 in
07:56 47.6 °F 45.7 °F 30.11 in North 2.3 mph 2.3 mph 93 % 0.04 in
08:01 47.6 °F 45.7 °F 30.12 in NW 2.3 mph 2.3 mph 93 % 0.03 in
08:06 47.6 °F 45.7 °F 30.12 in NW 3.5 mph 3.5 mph 93 % 0.02 in
08:11 47.5 °F 45.6 °F 30.12 in NW 1.2 mph 1.2 mph 93 % 0.02 in
08:16 47.5 °F 45.6 °F 30.13 in NW 2.3 mph 2.3 mph 93 % 0.01 in
08:21 47.4 °F 45.5 °F 30.13 in WNW 2.0 mph 2.0 mph 93 % 0.01 in
08:26 47.3 °F 45.4 °F 30.13 in NNW 1.2 mph 1.2 mph 93 % 0.02 in
08:31 47.2 °F 45.3 °F 30.13 in NW 3.5 mph 3.5 mph 93 % 0.03 in
08:36 47.2 °F 45.3 °F 30.13 in NW 2.3 mph 2.3 mph 93 % 0.03 in
08:41 47.3 °F 45.4 °F 30.13 in NW 2.3 mph 2.3 mph 93 % 0.04 in
08:46 47.3 °F 45.4 °F 30.14 in NW 4.6 mph 4.6 mph 93 % 0.04 in
08:51 47.2 °F 45.3 °F 30.14 in WNW 1.2 mph 1.2 mph 93 % 0.05 in
08:56 47.1 °F 44.9 °F 30.14 in NNW 2.3 mph 2.3 mph 92 % 0.05 in
09:01 47.0 °F 44.8 °F 30.14 in NW 2.3 mph 2.3 mph 92 % 0.06 in
09:06 46.9 °F 44.7 °F 30.14 in ENE 1.2 mph   92 % 0.07 in
09:11 46.8 °F 44.6 °F 30.14 in NNE 1.2 mph 1.2 mph 92 % 0.06 in
09:16 46.9 °F 44.7 °F 30.14 in West 2.3 mph 2.3 mph 92 % 0.06 in
09:21 47.0 °F 44.8 °F 30.14 in NW 3.5 mph 3.5 mph 92 % 0.06 in
09:26 47.1 °F 44.9 °F 30.14 in NW 1.2 mph   92 % 0.05 in
09:31 47.2 °F 45.0 °F 30.14 in NNE 1.2 mph   92 % 0.04 in
09:36 47.2 °F 44.7 °F 30.14 in WNW 2.3 mph 2.3 mph 91 % 0.04 in
09:41 47.5 °F 45.3 °F 30.15 in WNW 1.2 mph 1.2 mph 92 % 0.03 in
09:46 48.2 °F 45.7 °F 30.15 in WNW 1.2 mph 1.2 mph 91 % 0.03 in
09:51 49.1 °F 46.6 °F 30.15 in SE 1.2 mph 1.2 mph 91 % 0.02 in
09:56 49.5 °F 46.1 °F 30.15 in SSE 3.5 mph 3.5 mph 88 % 0.02 in
10:01 49.4 °F 45.7 °F 30.15 in Calm     87 % 0.01 in
10:06 49.2 °F 44.9 °F 30.16 in WNW 2.3 mph 2.3 mph 85 % 0.00 in
10:11 49.2 °F 44.9 °F 30.16 in NW 2.3 mph 2.3 mph 85 % 0.00 in
10:16 49.8 °F 45.8 °F 30.16 in NNE 1.2 mph   86 % 0.00 in
10:21 50.5 °F 46.2 °F 30.16 in NNE 1.2 mph 1.2 mph 85 % 0.00 in
10:26 51.0 °F 45.7 °F 30.16 in East 2.3 mph 2.3 mph 82 % 0.00 in
10:31 51.5 °F 45.5 °F 30.16 in WNW 2.3 mph 2.3 mph 80 % 0.00 in
10:35 52.0 °F 45.7 °F 30.16 in NW 3.0 mph 3.0 mph 79 % 0.00 in
10:40 52.2 °F 45.5 °F 30.16 in SE 1.2 mph   78 % 0.00 in
10:45 53.0 °F 46.0 °F 30.16 in Calm     77 % 0.00 in
10:51 53.2 °F 44.8 °F 30.16 in NW 2.3 mph 2.3 mph 73 % 0.00 in
10:56 53.6 °F 44.4 °F 30.15 in SE 1.2 mph 1.2 mph 71 % 0.00 in
11:01 53.9 °F 44.7 °F 30.16 in WNW 1.2 mph   71 % 0.00 in
11:06 53.9 °F 43.6 °F 30.16 in NW 3.5 mph 3.5 mph 68 % 0.00 in
11:11 53.9 °F 44.0 °F 30.16 in NNW 2.3 mph 2.3 mph 69 % 0.00 in
11:16 54.0 °F 43.7 °F 30.15 in NW 1.2 mph 1.2 mph 68 % 0.00 in
11:21 54.4 °F 44.4 °F 30.15 in WNW 3.5 mph 3.5 mph 69 % 0.00 in
11:26 54.2 °F 43.9 °F 30.15 in NW 5.0 mph 5.0 mph 68 % 0.00 in
11:31 54.3 °F 44.7 °F 30.15 in NW 2.3 mph 2.3 mph 70 % 0.00 in
11:36 54.5 °F 43.8 °F 30.15 in NW 3.5 mph 3.5 mph 67 % 0.00 in
11:41 54.7 °F 44.0 °F 30.15 in NW 4.6 mph 4.6 mph 67 % 0.00 in
11:46 55.1 °F 42.7 °F 30.15 in NW 3.5 mph 3.5 mph 63 % 0.00 in
11:51 55.1 °F 42.3 °F 30.14 in NW 4.0 mph 4.0 mph 62 % 0.00 in
11:56 54.7 °F 40.6 °F 30.14 in NW 3.5 mph 3.6 mph 59 % 0.00 in
12:01 54.6 °F 41.8 °F 30.14 in NW 3.5 mph 3.5 mph 62 % 0.00 in
12:06 54.9 °F 40.4 °F 30.14 in WNW 4.6 mph 4.6 mph 58 % 0.00 in
12:11 55.3 °F 40.8 °F 30.14 in NW 3.5 mph 3.5 mph 58 % 0.00 in
12:16 55.3 °F 40.8 °F 30.14 in NNW 2.3 mph 2.3 mph 58 % 0.00 in
12:21 55.4 °F 41.3 °F 30.13 in NW 3.5 mph 3.5 mph 59 % 0.00 in
12:26 56.0 °F 41.9 °F 30.14 in NW 2.3 mph 2.3 mph 59 % 0.00 in
12:31 56.0 °F 41.0 °F 30.14 in NW 3.5 mph 3.5 mph 57 % 0.00 in
12:36 56.4 °F 41.8 °F 30.13 in NW 4.6 mph 4.6 mph 58 % 0.00 in
12:41 56.4 °F 42.2 °F 30.13 in NNW 3.5 mph 3.5 mph 59 % 0.00 in
12:46 56.5 °F 42.8 °F 30.13 in NW 4.6 mph 4.6 mph 60 % 0.00 in
12:51 56.7 °F 42.5 °F 30.13 in NW 4.6 mph 4.6 mph 59 % 0.00 in
12:56 57.0 °F 41.9 °F 30.13 in WNW 3.5 mph 3.5 mph 57 % 0.00 in
13:01 56.8 °F 42.2 °F 30.13 in NW 3.5 mph 3.5 mph 58 % 0.00 in
13:06 56.0 °F 41.4 °F 30.13 in NW 3.5 mph 3.5 mph 58 % 0.00 in
13:11 56.1 °F 42.4 °F 30.13 in North 4.0 mph 4.0 mph 60 % 0.00 in
13:16 56.5 °F 41.0 °F 30.12 in NW 4.6 mph 4.6 mph 56 % 0.00 in
13:21 55.9 °F 40.4 °F 30.12 in NW 4.0 mph 4.0 mph 56 % 0.00 in
13:26 55.4 °F 40.4 °F 30.12 in NNW 2.0 mph 2.0 mph 57 % 0.00 in
13:31 55.9 °F 41.3 °F 30.12 in WNW 3.5 mph 3.5 mph 58 % 0.00 in
13:36 56.4 °F 41.3 °F 30.12 in WNW 3.5 mph 3.5 mph 57 % 0.00 in
13:41 56.4 °F 41.3 °F 30.12 in WNW 3.5 mph 3.5 mph 57 % 0.00 in
13:46 56.1 °F 41.1 °F 30.12 in NNW 2.3 mph 2.3 mph 57 % 0.00 in
13:51 56.1 °F 40.6 °F 30.12 in NNW 2.3 mph 2.3 mph 56 % 0.00 in
13:56 55.8 °F 39.4 °F 30.12 in North 3.5 mph 3.5 mph 54 % 0.00 in
14:01 56.3 °F 40.3 °F 30.11 in NNW 3.5 mph 3.5 mph 55 % 0.00 in
14:06 56.8 °F 39.4 °F 30.11 in WNW 2.3 mph 2.3 mph 52 % 0.00 in
14:11 57.2 °F 38.2 °F 30.12 in NW 5.8 mph 5.8 mph 49 % 0.00 in
14:16 57.5 °F 38.5 °F 30.11 in NW 2.3 mph 2.3 mph 49 % 0.00 in
14:21 57.6 °F 37.5 °F 30.11 in NW 4.6 mph 4.6 mph 47 % 0.00 in
14:50 58.1 °F 40.1 °F 30.11 in NW 3.5 mph 3.5 mph 51 % 0.00 in
14:55 58.2 °F 40.6 °F 30.11 in NNW 4.6 mph 4.6 mph 52 % 0.00 in
15:00 58.1 °F 40.1 °F 30.12 in WNW 5.8 mph 5.8 mph 51 % 0.00 in
15:05 57.8 °F 40.3 °F 30.11 in NW 3.5 mph 3.5 mph 52 % 0.00 in
15:10 57.8 °F 39.3 °F 30.12 in WNW 4.6 mph 4.6 mph 50 % 0.00 in
15:15 57.4 °F 38.4 °F 30.12 in WNW 4.6 mph 4.6 mph 49 % 0.00 in
15:20 57.2 °F 38.7 °F 30.12 in NW 3.5 mph 3.5 mph 50 % 0.00 in
15:25 57.2 °F 38.7 °F 30.12 in NW 2.3 mph 2.3 mph 50 % 0.00 in
15:30 57.0 °F 38.0 °F 30.12 in NW 4.6 mph 4.6 mph 49 % 0.00 in
15:35 57.0 °F 38.5 °F 30.12 in North 3.5 mph 3.5 mph 50 % 0.00 in
15:40 57.0 °F 38.5 °F 30.12 in NW 3.5 mph 3.5 mph 50 % 0.00 in
15:45 56.8 °F 38.3 °F 30.12 in NW 5.8 mph 5.8 mph 50 % 0.00 in
15:50 56.6 °F 37.1 °F 30.12 in NW 3.5 mph 3.5 mph 48 % 0.00 in
15:55 56.5 °F 39.1 °F 30.12 in WNW 2.3 mph 2.3 mph 52 % 0.00 in
16:00 56.4 °F 39.0 °F 30.12 in WNW 2.3 mph 2.3 mph 52 % 0.00 in
16:05 56.4 °F 39.0 °F 30.13 in NW 4.6 mph 4.6 mph 52 % 0.00 in
16:10 56.4 °F 39.0 °F 30.13 in NW 3.5 mph 3.5 mph 52 % 0.00 in
16:15 56.3 °F 38.9 °F 30.13 in WNW 3.5 mph 3.5 mph 52 % 0.00 in
16:20 56.1 °F 38.7 °F 30.13 in NW 3.0 mph 3.0 mph 52 % 0.00 in
16:25 55.9 °F 39.0 °F 30.13 in WNW 4.6 mph 4.6 mph 53 % 0.00 in
16:30 55.7 °F 38.8 °F 30.13 in North 3.5 mph 3.5 mph 53 % 0.00 in
16:35 55.6 °F 38.7 °F 30.13 in NW 3.0 mph 3.0 mph 53 % 0.00 in
16:40 55.4 °F 39.0 °F 30.13 in Calm     54 % 0.00 in
16:45 55.2 °F 38.4 °F 30.13 in NW 3.5 mph 3.5 mph 53 % 0.00 in
16:50 55.0 °F 38.2 °F 30.13 in NW 2.3 mph 2.3 mph 53 % 0.00 in
16:55 54.7 °F 38.8 °F 30.13 in Calm     55 % 0.00 in
17:00 54.3 °F 38.5 °F 30.13 in NW 1.2 mph 1.2 mph 55 % 0.00 in
17:05 53.9 °F 39.0 °F 30.14 in NW 1.2 mph 1.2 mph 57 % 0.00 in
17:10 53.6 °F 38.7 °F 30.14 in Calm     57 % 0.00 in
17:15 53.2 °F 39.2 °F 30.14 in Calm     59 % 0.00 in
17:20 52.7 °F 39.2 °F 30.14 in Calm     60 % 0.00 in
17:25 52.3 °F 38.8 °F 30.14 in Calm     60 % 0.00 in
17:30 51.9 °F 39.3 °F 30.14 in Calm     62 % 0.00 in
17:35 51.3 °F 39.1 °F 30.15 in Calm     63 % 0.00 in
17:40 50.8 °F 39.1 °F 30.15 in Calm     64 % 0.00 in
17:45 50.1 °F 39.6 °F 30.15 in Calm     67 % 0.00 in
17:50 49.5 °F 39.0 °F 30.15 in Calm     67 % 0.00 in
17:55 49.1 °F 39.4 °F 30.15 in Calm     69 % 0.00 in
18:00 48.8 °F 39.4 °F 30.15 in Calm     70 % 0.00 in
18:05 48.4 °F 39.4 °F 30.15 in Calm     71 % 0.00 in
18:10 48.0 °F 39.8 °F 30.16 in Calm     73 % 0.00 in
18:15 47.6 °F 39.0 °F 30.16 in Calm     72 % 0.00 in
18:20 47.3 °F 39.4 °F 30.16 in Calm     74 % 0.00 in
18:25 46.9 °F 39.7 °F 30.16 in Calm     76 % 0.00 in
18:30 46.5 °F 39.3 °F 30.16 in Calm     76 % 0.00 in
18:35 46.2 °F 39.7 °F 30.16 in Calm     78 % 0.00 in
18:40 46.0 °F 39.5 °F 30.16 in Calm     78 % 0.00 in
18:45 46.0 °F 40.2 °F 30.16 in Calm     80 % 0.00 in
18:50 45.7 °F 39.9 °F 30.16 in Calm     80 % 0.00 in
18:55 45.4 °F 39.9 °F 30.17 in Calm     81 % 0.00 in
19:00 45.1 °F 39.6 °F 30.17 in Calm     81 % 0.00 in
19:05 44.8 °F 39.6 °F 30.17 in Calm     82 % 0.00 in
19:11 45.0 °F 39.8 °F 30.17 in Calm     82 % 0.00 in
19:16 44.9 °F 39.4 °F 30.17 in Calm     81 % 0.00 in
19:21 44.6 °F 39.4 °F 30.17 in Calm     82 % 0.00 in
19:26 44.4 °F 39.6 °F 30.17 in Calm     83 % 0.00 in
19:34 43.9 °F 39.4 °F 30.17 in Calm     84 % 0.00 in
19:40 43.8 °F 39.3 °F 30.17 in Calm     84 % 0.00 in
19:45 43.9 °F 39.4 °F 30.17 in Calm     84 % 0.00 in
19:50 44.1 °F 39.3 °F 30.17 in Calm     83 % 0.00 in
19:55 44.9 °F 39.4 °F 30.17 in Calm     81 % 0.00 in
20:00 44.9 °F 39.4 °F 30.17 in Calm     81 % 0.00 in
20:05 44.1 °F 39.0 °F 30.18 in Calm     82 % 0.00 in
20:10 43.3 °F 38.5 °F 30.18 in Calm     83 % 0.00 in
20:15 42.7 °F 38.5 °F 30.18 in Calm     85 % 0.00 in
20:20 42.2 °F 38.3 °F 30.18 in Calm     86 % 0.00 in
20:25 42.3 °F 38.4 °F 30.18 in Calm     86 % 0.00 in
20:30 42.6 °F 38.4 °F 30.18 in Calm     85 % 0.00 in
20:35 43.0 °F 38.5 °F 30.18 in Calm     84 % 0.00 in
20:40 43.2 °F 38.7 °F 30.18 in Calm     84 % 0.00 in
20:45 43.5 °F 38.7 °F 30.19 in Calm     83 % 0.00 in
20:50 43.7 °F 38.6 °F 30.19 in Calm     82 % 0.00 in
20:55 43.6 °F 38.5 °F 30.19 in Calm     82 % 0.00 in
21:00 43.5 °F 38.4 °F 30.19 in Calm     82 % 0.00 in
21:05 43.3 °F 38.2 °F 30.19 in Calm     82 % 0.00 in
21:10 43.1 °F 38.0 °F 30.19 in Calm     82 % 0.00 in
21:15 43.1 °F 38.3 °F 30.20 in Calm     83 % 0.00 in
21:20 43.3 °F 38.2 °F 30.20 in Calm     82 % 0.00 in
21:25 43.6 °F 38.2 °F 30.20 in Calm     81 % 0.00 in
21:30 43.8 °F 38.0 °F 30.20 in Calm     80 % 0.00 in
21:35 43.8 °F 38.0 °F 30.20 in Calm     80 % 0.00 in
21:40 43.8 °F 38.0 °F 30.20 in Calm     80 % 0.00 in
21:45 43.8 °F 38.0 °F 30.20 in Calm     80 % 0.00 in
21:50 43.7 °F 37.9 °F 30.20 in Calm     80 % 0.00 in
21:55 43.3 °F 37.9 °F 30.21 in Calm     81 % 0.00 in
22:00 42.7 °F 37.6 °F 30.21 in Calm     82 % 0.00 in
22:05 41.8 °F 37.0 °F 30.21 in Calm     83 % 0.00 in
22:10 41.1 °F 36.9 °F 30.21 in Calm     85 % 0.00 in
22:15 40.8 °F 36.9 °F 30.22 in Calm     86 % 0.00 in
22:20 40.4 °F 36.5 °F 30.22 in Calm     86 % 0.00 in
22:25 39.9 °F 36.3 °F 30.22 in Calm     87 % 0.00 in
22:30 39.5 °F 36.2 °F 30.22 in Calm     88 % 0.00 in
22:35 39.2 °F 35.9 °F 30.23 in Calm     88 % 0.00 in
22:40 39.1 °F 36.1 °F 30.23 in Calm     89 % 0.00 in
22:45 39.2 °F 36.2 °F 30.23 in Calm     89 % 0.00 in
22:50 39.3 °F 36.3 °F 30.23 in Calm     89 % 0.00 in
22:55 39.5 °F 36.8 °F 30.24 in Calm     90 % 0.00 in
23:00 39.6 °F 36.6 °F 30.23 in Calm     89 % 0.00 in
23:05 39.5 °F 36.5 °F 30.24 in Calm     89 % 0.00 in
23:10 39.5 °F 36.5 °F 30.24 in East 1.0 mph 1.0 mph 89 % 0.00 in
23:15 39.1 °F 35.8 °F 30.24 in East 1.2 mph   88 % 0.00 in
23:20 38.8 °F 35.8 °F 30.24 in Calm     89 % 0.00 in
23:25 38.7 °F 35.7 °F 30.24 in East 1.2 mph   89 % 0.00 in
23:30 38.5 °F 35.5 °F 30.24 in Calm     89 % 0.00 in
23:35 38.3 °F 35.3 °F 30.24 in Calm     89 % 0.00 in
23:40 38.0 °F 35.3 °F 30.24 in East 1.2 mph   90 % 0.00 in
23:45 37.9 °F 35.2 °F 30.24 in Calm     90 % 0.00 in
23:50 37.7 °F 35.0 °F 30.24 in Calm     90 % 0.00 in
23:55 37.6 °F 34.9 °F 30.24 in Calm     90 % 0.00 in
Park Place, Exeter, Tulare County, California, USA
Compliments of Weather Underground - 2.75 mb